sensor_id;sensor_type;location;lat;lon;timestamp;temperature;humidity
23713;DHT22;12035;49.978;8.298;2023-06-22T00:02:17;28.30;47.60
23713;DHT22;12035;49.978;8.298;2023-06-22T00:07:16;28.40;47.70
23713;DHT22;12035;49.978;8.298;2023-06-22T00:12:13;28.40;47.70
23713;DHT22;12035;49.978;8.298;2023-06-22T00:17:10;28.50;47.60
23713;DHT22;12035;49.978;8.298;2023-06-22T00:22:06;28.50;47.50
23713;DHT22;12035;49.978;8.298;2023-06-22T00:27:05;28.60;47.50
23713;DHT22;12035;49.978;8.298;2023-06-22T00:32:03;28.70;47.60
23713;DHT22;12035;49.978;8.298;2023-06-22T00:37:01;28.80;47.50
23713;DHT22;12035;49.978;8.298;2023-06-22T00:41:59;28.80;47.50
23713;DHT22;12035;49.978;8.298;2023-06-22T00:46:58;28.90;47.70
23713;DHT22;12035;49.978;8.298;2023-06-22T00:51:56;28.80;47.90
23713;DHT22;12035;49.978;8.298;2023-06-22T00:56:54;28.80;48.30
23713;DHT22;12035;49.978;8.298;2023-06-22T01:01:52;28.80;49.00
23713;DHT22;12035;49.978;8.298;2023-06-22T01:07:00;28.80;49.50
23713;DHT22;12035;49.978;8.298;2023-06-22T01:12:06;28.70;50.30
23713;DHT22;12035;49.978;8.298;2023-06-22T01:17:05;28.50;52.10
23713;DHT22;12035;49.978;8.298;2023-06-22T01:22:07;28.20;52.60
23713;DHT22;12035;49.978;8.298;2023-06-22T01:27:17;28.00;53.00
23713;DHT22;12035;49.978;8.298;2023-06-22T01:32:24;27.70;53.30
23713;DHT22;12035;49.978;8.298;2023-06-22T01:37:22;27.60;53.40
23713;DHT22;12035;49.978;8.298;2023-06-22T01:42:20;27.60;53.50
23713;DHT22;12035;49.978;8.298;2023-06-22T01:47:17;27.70;53.60
23713;DHT22;12035;49.978;8.298;2023-06-22T01:52:15;27.70;53.40
23713;DHT22;12035;49.978;8.298;2023-06-22T01:57:12;27.80;53.50
23713;DHT22;12035;49.978;8.298;2023-06-22T02:02:11;27.90;53.70
23713;DHT22;12035;49.978;8.298;2023-06-22T02:07:11;27.90;54.30
23713;DHT22;12035;49.978;8.298;2023-06-22T02:12:12;27.90;53.70
23713;DHT22;12035;49.978;8.298;2023-06-22T02:17:10;28.00;53.70
23713;DHT22;12035;49.978;8.298;2023-06-22T02:22:07;28.10;53.30
23713;DHT22;12035;49.978;8.298;2023-06-22T02:27:05;28.10;53.60
23713;DHT22;12035;49.978;8.298;2023-06-22T02:32:04;28.10;53.50
23713;DHT22;12035;49.978;8.298;2023-06-22T02:37:02;28.10;53.80
23713;DHT22;12035;49.978;8.298;2023-06-22T02:41:59;28.10;53.50
23713;DHT22;12035;49.978;8.298;2023-06-22T02:46:56;28.10;53.50
23713;DHT22;12035;49.978;8.298;2023-06-22T02:51:55;28.00;53.50
23713;DHT22;12035;49.978;8.298;2023-06-22T02:56:53;28.10;53.40
23713;DHT22;12035;49.978;8.298;2023-06-22T03:01:50;28.00;53.50
23713;DHT22;12035;49.978;8.298;2023-06-22T03:06:48;28.00;53.70
23713;DHT22;12035;49.978;8.298;2023-06-22T03:11:47;28.00;53.50
23713;DHT22;12035;49.978;8.298;2023-06-22T03:16:44;28.00;53.70
23713;DHT22;12035;49.978;8.298;2023-06-22T03:21:41;28.00;54.00
23713;DHT22;12035;49.978;8.298;2023-06-22T03:26:38;28.00;54.10
23713;DHT22;12035;49.978;8.298;2023-06-22T03:31:37;28.00;54.00
23713;DHT22;12035;49.978;8.298;2023-06-22T03:36:34;27.90;53.80
23713;DHT22;12035;49.978;8.298;2023-06-22T03:41:31;27.80;53.70
23713;DHT22;12035;49.978;8.298;2023-06-22T03:46:28;27.60;53.90
23713;DHT22;12035;49.978;8.298;2023-06-22T03:51:26;27.40;54.20
23713;DHT22;12035;49.978;8.298;2023-06-22T03:56:23;27.20;54.50
23713;DHT22;12035;49.978;8.298;2023-06-22T04:01:20;27.00;54.60
23713;DHT22;12035;49.978;8.298;2023-06-22T04:06:17;26.90;55.00
23713;DHT22;12035;49.978;8.298;2023-06-22T04:11:15;26.80;55.30
23713;DHT22;12035;49.978;8.298;2023-06-22T04:16:14;26.70;55.70
23713;DHT22;12035;49.978;8.298;2023-06-22T04:21:11;26.60;56.00
23713;DHT22;12035;49.978;8.298;2023-06-22T04:26:08;26.50;56.10
23713;DHT22;12035;49.978;8.298;2023-06-22T04:31:06;26.40;56.40
23713;DHT22;12035;49.978;8.298;2023-06-22T04:36:03;26.30;56.50
23713;DHT22;12035;49.978;8.298;2023-06-22T04:41:01;26.20;56.50
23713;DHT22;12035;49.978;8.298;2023-06-22T04:45:58;26.20;56.40
23713;DHT22;12035;49.978;8.298;2023-06-22T04:51:00;26.20;56.50
23713;DHT22;12035;49.978;8.298;2023-06-22T04:55:59;26.30;56.70
23713;DHT22;12035;49.978;8.298;2023-06-22T05:00:56;26.30;56.80
23713;DHT22;12035;49.978;8.298;2023-06-22T05:05:53;26.30;56.50
23713;DHT22;12035;49.978;8.298;2023-06-22T05:10:51;26.40;56.80
23713;DHT22;12035;49.978;8.298;2023-06-22T05:15:48;26.40;56.80
23713;DHT22;12035;49.978;8.298;2023-06-22T05:20:45;26.40;56.80
23713;DHT22;12035;49.978;8.298;2023-06-22T05:25:42;26.40;57.40
23713;DHT22;12035;49.978;8.298;2023-06-22T05:30:41;26.60;58.30
23713;DHT22;12035;49.978;8.298;2023-06-22T05:35:38;27.00;58.10
23713;DHT22;12035;49.978;8.298;2023-06-22T05:40:35;27.70;57.70
23713;DHT22;12035;49.978;8.298;2023-06-22T05:45:32;28.40;56.70
23713;DHT22;12035;49.978;8.298;2023-06-22T05:50:30;29.20;55.60
23713;DHT22;12035;49.978;8.298;2023-06-22T05:55:27;29.90;53.60
23713;DHT22;12035;49.978;8.298;2023-06-22T06:00:24;30.60;53.40
23713;DHT22;12035;49.978;8.298;2023-06-22T06:05:21;31.30;52.30
23713;DHT22;12035;49.978;8.298;2023-06-22T06:10:20;31.80;50.90
23713;DHT22;12035;49.978;8.298;2023-06-22T06:15:17;32.20;49.80
23713;DHT22;12035;49.978;8.298;2023-06-22T06:20:14;32.50;48.90
23713;DHT22;12035;49.978;8.298;2023-06-22T06:25:12;32.80;48.70
23713;DHT22;12035;49.978;8.298;2023-06-22T06:30:14;33.20;48.20
23713;DHT22;12035;49.978;8.298;2023-06-22T06:35:13;33.50;46.80
23713;DHT22;12035;49.978;8.298;2023-06-22T06:40:12;33.70;46.00
23713;DHT22;12035;49.978;8.298;2023-06-22T06:45:11;33.70;45.90
23713;DHT22;12035;49.978;8.298;2023-06-22T06:50:12;33.50;45.70
23713;DHT22;12035;49.978;8.298;2023-06-22T06:55:09;33.50;45.80
23713;DHT22;12035;49.978;8.298;2023-06-22T07:00:08;33.50;46.00
23713;DHT22;12035;49.978;8.298;2023-06-22T07:05:10;33.40;45.80
23713;DHT22;12035;49.978;8.298;2023-06-22T07:10:08;33.40;45.80
23713;DHT22;12035;49.978;8.298;2023-06-22T07:15:07;33.40;46.10
23713;DHT22;12035;49.978;8.298;2023-06-22T07:20:06;33.60;46.10
23713;DHT22;12035;49.978;8.298;2023-06-22T07:25:07;33.90;45.90
23713;DHT22;12035;49.978;8.298;2023-06-22T07:30:06;34.30;45.60
23713;DHT22;12035;49.978;8.298;2023-06-22T07:35:04;34.70;44.90
23713;DHT22;12035;49.978;8.298;2023-06-22T07:40:03;35.10;44.10
23713;DHT22;12035;49.978;8.298;2023-06-22T07:45:04;35.30;43.30
23713;DHT22;12035;49.978;8.298;2023-06-22T07:50:04;35.50;42.80
23713;DHT22;12035;49.978;8.298;2023-06-22T07:55:02;35.40;42.40
23713;DHT22;12035;49.978;8.298;2023-06-22T08:00:00;35.50;42.20
23713;DHT22;12035;49.978;8.298;2023-06-22T08:05:00;35.40;42.20
23713;DHT22;12035;49.978;8.298;2023-06-22T08:09:57;35.40;42.40
23713;DHT22;12035;49.978;8.298;2023-06-22T08:14:54;35.50;42.30
23713;DHT22;12035;49.978;8.298;2023-06-22T08:19:52;35.60;42.00
23713;DHT22;12035;49.978;8.298;2023-06-22T08:24:50;35.60;41.80
23713;DHT22;12035;49.978;8.298;2023-06-22T08:29:47;35.60;41.80
23713;DHT22;12035;49.978;8.298;2023-06-22T08:34:45;35.50;41.90
23713;DHT22;12035;49.978;8.298;2023-06-22T08:39:42;35.40;42.20
23713;DHT22;12035;49.978;8.298;2023-06-22T08:44:41;35.30;42.20
23713;DHT22;12035;49.978;8.298;2023-06-22T08:49:38;35.20;42.50
23713;DHT22;12035;49.978;8.298;2023-06-22T08:54:35;35.10;42.60
23713;DHT22;12035;49.978;8.298;2023-06-22T08:59:32;34.90;42.50
23713;DHT22;12035;49.978;8.298;2023-06-22T09:04:30;34.70;42.90
23713;DHT22;12035;49.978;8.298;2023-06-22T09:09:29;34.40;43.10
23713;DHT22;12035;49.978;8.298;2023-06-22T09:14:27;34.20;43.40
23713;DHT22;12035;49.978;8.298;2023-06-22T09:19:23;34.10;43.90
23713;DHT22;12035;49.978;8.298;2023-06-22T09:24:22;34.20;44.20
23713;DHT22;12035;49.978;8.298;2023-06-22T09:29:19;34.20;44.00
23713;DHT22;12035;49.978;8.298;2023-06-22T09:34:16;34.20;43.90
23713;DHT22;12035;49.978;8.298;2023-06-22T09:39:17;34.20;43.80
23713;DHT22;12035;49.978;8.298;2023-06-22T09:44:15;34.10;44.10
23713;DHT22;12035;49.978;8.298;2023-06-22T09:49:13;34.00;44.10
23713;DHT22;12035;49.978;8.298;2023-06-22T09:54:10;33.90;44.10
23713;DHT22;12035;49.978;8.298;2023-06-22T09:59:07;33.70;44.30
23713;DHT22;12035;49.978;8.298;2023-06-22T10:04:05;33.60;44.00
23713;DHT22;12035;49.978;8.298;2023-06-22T10:09:02;33.50;44.20
23713;DHT22;12035;49.978;8.298;2023-06-22T10:13:59;33.50;44.00
23713;DHT22;12035;49.978;8.298;2023-06-22T10:18:56;33.60;44.00
23713;DHT22;12035;49.978;8.298;2023-06-22T10:23:55;33.80;44.00
23713;DHT22;12035;49.978;8.298;2023-06-22T10:28:52;34.00;43.50
23713;DHT22;12035;49.978;8.298;2023-06-22T10:33:49;34.10;43.10
23713;DHT22;12035;49.978;8.298;2023-06-22T10:38:46;34.20;43.00
23713;DHT22;12035;49.978;8.298;2023-06-22T10:43:45;34.30;42.40
23713;DHT22;12035;49.978;8.298;2023-06-22T10:48:42;34.40;42.10
23713;DHT22;12035;49.978;8.298;2023-06-22T10:53:39;34.40;41.80
23713;DHT22;12035;49.978;8.298;2023-06-22T10:58:35;34.40;41.80
23713;DHT22;12035;49.978;8.298;2023-06-22T11:03:34;34.50;41.40
23713;DHT22;12035;49.978;8.298;2023-06-22T11:08:31;34.40;41.70
23713;DHT22;12035;49.978;8.298;2023-06-22T11:13:28;34.40;42.00
23713;DHT22;12035;49.978;8.298;2023-06-22T11:18:25;34.40;42.00
23713;DHT22;12035;49.978;8.298;2023-06-22T11:23:23;34.50;42.00
23713;DHT22;12035;49.978;8.298;2023-06-22T11:28:21;34.60;41.90
23713;DHT22;12035;49.978;8.298;2023-06-22T11:33:18;34.70;41.80
23713;DHT22;12035;49.978;8.298;2023-06-22T11:38:15;34.70;41.80
23713;DHT22;12035;49.978;8.298;2023-06-22T11:43:14;34.80;41.60
23713;DHT22;12035;49.978;8.298;2023-06-22T11:48:11;34.90;41.70
23713;DHT22;12035;49.978;8.298;2023-06-22T11:53:08;35.00;41.50
23713;DHT22;12035;49.978;8.298;2023-06-22T11:58:05;35.10;41.40
23713;DHT22;12035;49.978;8.298;2023-06-22T12:03:03;35.30;41.60
23713;DHT22;12035;49.978;8.298;2023-06-22T12:08:00;35.30;41.20
23713;DHT22;12035;49.978;8.298;2023-06-22T12:12:57;35.40;41.10
23713;DHT22;12035;49.978;8.298;2023-06-22T12:17:55;35.40;41.10
23713;DHT22;12035;49.978;8.298;2023-06-22T12:22:53;35.40;41.30
23713;DHT22;12035;49.978;8.298;2023-06-22T12:27:51;35.40;41.30
23713;DHT22;12035;49.978;8.298;2023-06-22T12:32:49;35.40;41.30
23713;DHT22;12035;49.978;8.298;2023-06-22T12:37:46;35.40;41.20
23713;DHT22;12035;49.978;8.298;2023-06-22T12:42:46;35.50;41.30
23713;DHT22;12035;49.978;8.298;2023-06-22T12:47:43;35.50;41.30
23713;DHT22;12035;49.978;8.298;2023-06-22T12:52:40;35.50;41.50
23713;DHT22;12035;49.978;8.298;2023-06-22T12:57:37;35.50;41.60
23713;DHT22;12035;49.978;8.298;2023-06-22T13:02:35;35.50;41.80
23713;DHT22;12035;49.978;8.298;2023-06-22T13:07:32;35.60;41.50
23713;DHT22;12035;49.978;8.298;2023-06-22T13:12:29;35.70;41.40
23713;DHT22;12035;49.978;8.298;2023-06-22T13:17:27;35.70;41.20
23713;DHT22;12035;49.978;8.298;2023-06-22T13:22:39;35.80;41.30
23713;DHT22;12035;49.978;8.298;2023-06-22T13:27:38;35.80;41.30
23713;DHT22;12035;49.978;8.298;2023-06-22T13:32:35;35.90;41.20
23713;DHT22;12035;49.978;8.298;2023-06-22T13:37:32;36.00;40.90
23713;DHT22;12035;49.978;8.298;2023-06-22T13:42:31;36.00;40.80
23713;DHT22;12035;49.978;8.298;2023-06-22T13:47:28;36.10;40.30
23713;DHT22;12035;49.978;8.298;2023-06-22T13:52:26;36.00;39.70
23713;DHT22;12035;49.978;8.298;2023-06-22T13:57:23;36.00;39.30
23713;DHT22;12035;49.978;8.298;2023-06-22T14:02:21;36.00;39.10
23713;DHT22;12035;49.978;8.298;2023-06-22T14:07:18;36.10;38.80
23713;DHT22;12035;49.978;8.298;2023-06-22T14:12:16;36.10;38.30
23713;DHT22;12035;49.978;8.298;2023-06-22T14:17:14;36.00;37.10
23713;DHT22;12035;49.978;8.298;2023-06-22T14:22:13;36.00;37.00
23713;DHT22;12035;49.978;8.298;2023-06-22T14:27:10;35.80;37.10
23713;DHT22;12035;49.978;8.298;2023-06-22T14:32:08;35.70;37.60
23713;DHT22;12035;49.978;8.298;2023-06-22T14:37:06;35.60;38.10
23713;DHT22;12035;49.978;8.298;2023-06-22T14:42:06;35.50;38.70
23713;DHT22;12035;49.978;8.298;2023-06-22T14:47:05;35.50;38.80
23713;DHT22;12035;49.978;8.298;2023-06-22T14:52:03;35.40;38.70
23713;DHT22;12035;49.978;8.298;2023-06-22T14:57:01;35.40;38.80
23713;DHT22;12035;49.978;8.298;2023-06-22T15:02:00;35.40;38.90
23713;DHT22;12035;49.978;8.298;2023-06-22T15:06:57;35.30;39.50
23713;DHT22;12035;49.978;8.298;2023-06-22T15:11:54;35.30;41.10
23713;DHT22;12035;49.978;8.298;2023-06-22T15:16:51;35.10;45.60
23713;DHT22;12035;49.978;8.298;2023-06-22T15:21:49;34.80;45.70
23713;DHT22;12035;49.978;8.298;2023-06-22T15:26:46;34.50;45.80
23713;DHT22;12035;49.978;8.298;2023-06-22T15:31:44;34.40;46.10
23713;DHT22;12035;49.978;8.298;2023-06-22T15:36:41;34.20;46.10
23713;DHT22;12035;49.978;8.298;2023-06-22T15:41:41;34.10;46.10
23713;DHT22;12035;49.978;8.298;2023-06-22T15:46:38;33.90;45.70
23713;DHT22;12035;49.978;8.298;2023-06-22T15:51:35;33.80;45.60
23713;DHT22;12035;49.978;8.298;2023-06-22T15:56:32;33.70;45.30
23713;DHT22;12035;49.978;8.298;2023-06-22T16:01:31;33.40;45.80
23713;DHT22;12035;49.978;8.298;2023-06-22T16:06:28;33.00;46.60
23713;DHT22;12035;49.978;8.298;2023-06-22T16:11:25;32.50;46.60
23713;DHT22;12035;49.978;8.298;2023-06-22T16:16:22;32.00;47.30
23713;DHT22;12035;49.978;8.298;2023-06-22T16:21:20;31.70;48.10
23713;DHT22;12035;49.978;8.298;2023-06-22T16:26:17;31.50;48.80
23713;DHT22;12035;49.978;8.298;2023-06-22T16:31:14;31.50;49.10
23713;DHT22;12035;49.978;8.298;2023-06-22T16:36:11;31.40;49.40
23713;DHT22;12035;49.978;8.298;2023-06-22T16:41:10;31.10;49.80
23713;DHT22;12035;49.978;8.298;2023-06-22T16:46:08;30.90;50.70
23713;DHT22;12035;49.978;8.298;2023-06-22T16:51:06;30.70;51.30
23713;DHT22;12035;49.978;8.298;2023-06-22T16:56:04;30.70;51.40
23713;DHT22;12035;49.978;8.298;2023-06-22T17:01:03;30.70;51.60
23713;DHT22;12035;49.978;8.298;2023-06-22T17:06:04;30.80;51.80
23713;DHT22;12035;49.978;8.298;2023-06-22T17:11:02;30.90;51.60
23713;DHT22;12035;49.978;8.298;2023-06-22T17:16:02;31.00;51.00
23713;DHT22;12035;49.978;8.298;2023-06-22T17:21:02;31.10;51.20
23713;DHT22;12035;49.978;8.298;2023-06-22T17:26:01;31.10;50.80
23713;DHT22;12035;49.978;8.298;2023-06-22T17:31:10;31.00;50.40
23713;DHT22;12035;49.978;8.298;2023-06-22T17:36:11;31.00;51.00
23713;DHT22;12035;49.978;8.298;2023-06-22T17:41:09;31.00;51.80
23713;DHT22;12035;49.978;8.298;2023-06-22T17:46:06;30.90;52.50
23713;DHT22;12035;49.978;8.298;2023-06-22T17:51:04;30.80;53.30
23713;DHT22;12035;49.978;8.298;2023-06-22T17:56:02;30.80;53.20
23713;DHT22;12035;49.978;8.298;2023-06-22T18:00:59;30.70;53.00
23713;DHT22;12035;49.978;8.298;2023-06-22T18:05:56;30.80;52.50
23713;DHT22;12035;49.978;8.298;2023-06-22T18:10:56;30.80;52.20
23713;DHT22;12035;49.978;8.298;2023-06-22T18:15:56;30.90;52.30
23713;DHT22;12035;49.978;8.298;2023-06-22T18:20:55;30.90;52.40
23713;DHT22;12035;49.978;8.298;2023-06-22T18:25:54;30.90;52.40
23713;DHT22;12035;49.978;8.298;2023-06-22T18:30:51;30.80;52.70
23713;DHT22;12035;49.978;8.298;2023-06-22T18:35:49;30.70;53.00
23713;DHT22;12035;49.978;8.298;2023-06-22T18:40:49;30.60;53.30
23713;DHT22;12035;49.978;8.298;2023-06-22T18:45:48;30.60;53.40
23713;DHT22;12035;49.978;8.298;2023-06-22T18:50:45;30.50;53.40
23713;DHT22;12035;49.978;8.298;2023-06-22T18:55:46;30.60;53.30
23713;DHT22;12035;49.978;8.298;2023-06-22T19:00:52;30.50;52.00
23713;DHT22;12035;49.978;8.298;2023-06-22T19:05:49;30.60;50.10
23713;DHT22;12035;49.978;8.298;2023-06-22T19:10:46;30.60;49.20
23713;DHT22;12035;49.978;8.298;2023-06-22T19:15:45;30.60;48.70
23713;DHT22;12035;49.978;8.298;2023-06-22T19:20:48;30.50;48.50
23713;DHT22;12035;49.978;8.298;2023-06-22T19:25:46;30.50;47.90
23713;DHT22;12035;49.978;8.298;2023-06-22T19:30:44;30.40;47.90
23713;DHT22;12035;49.978;8.298;2023-06-22T19:35:41;30.30;47.90
23713;DHT22;12035;49.978;8.298;2023-06-22T19:40:41;30.20;47.50
23713;DHT22;12035;49.978;8.298;2023-06-22T19:45:39;30.10;47.00
23713;DHT22;12035;49.978;8.298;2023-06-22T19:50:37;30.00;47.20
23713;DHT22;12035;49.978;8.298;2023-06-22T19:55:38;29.80;47.50
23713;DHT22;12035;49.978;8.298;2023-06-22T20:00:38;29.60;47.70
23713;DHT22;12035;49.978;8.298;2023-06-22T20:05:40;29.40;47.70
23713;DHT22;12035;49.978;8.298;2023-06-22T20:10:45;29.20;48.00
23713;DHT22;12035;49.978;8.298;2023-06-22T20:15:43;29.00;48.10
23713;DHT22;12035;49.978;8.298;2023-06-22T20:20:43;28.80;48.50
23713;DHT22;12035;49.978;8.298;2023-06-22T20:25:44;28.60;48.70
23713;DHT22;12035;49.978;8.298;2023-06-22T20:31:00;28.50;49.00
23713;DHT22;12035;49.978;8.298;2023-06-22T20:35:58;28.30;49.40
23713;DHT22;12035;49.978;8.298;2023-06-22T20:40:57;28.10;49.80
23713;DHT22;12035;49.978;8.298;2023-06-22T20:45:55;27.90;50.10
23713;DHT22;12035;49.978;8.298;2023-06-22T20:50:55;27.70;50.30
23713;DHT22;12035;49.978;8.298;2023-06-22T20:55:53;27.60;50.80
23713;DHT22;12035;49.978;8.298;2023-06-22T21:00:51;27.40;50.90
23713;DHT22;12035;49.978;8.298;2023-06-22T21:05:50;27.30;51.20
23713;DHT22;12035;49.978;8.298;2023-06-22T21:10:47;27.20;51.30
23713;DHT22;12035;49.978;8.298;2023-06-22T21:15:44;27.10;51.50
23713;DHT22;12035;49.978;8.298;2023-06-22T21:20:42;27.00;51.70
23713;DHT22;12035;49.978;8.298;2023-06-22T21:25:39;27.00;51.80
23713;DHT22;12035;49.978;8.298;2023-06-22T21:30:36;27.00;51.80
23713;DHT22;12035;49.978;8.298;2023-06-22T21:35:34;27.00;52.10
23713;DHT22;12035;49.978;8.298;2023-06-22T21:40:32;26.90;52.40
23713;DHT22;12035;49.978;8.298;2023-06-22T21:45:29;26.80;52.40
23713;DHT22;12035;49.978;8.298;2023-06-22T21:50:26;26.80;52.40
23713;DHT22;12035;49.978;8.298;2023-06-22T21:55:23;26.90;52.50
23713;DHT22;12035;49.978;8.298;2023-06-22T22:00:21;26.80;52.50
23713;DHT22;12035;49.978;8.298;2023-06-22T22:05:18;26.90;52.60
23713;DHT22;12035;49.978;8.298;2023-06-22T22:10:16;26.80;52.70
23713;DHT22;12035;49.978;8.298;2023-06-22T22:15:13;26.80;52.90
23713;DHT22;12035;49.978;8.298;2023-06-22T22:20:12;26.60;53.10
23713;DHT22;12035;49.978;8.298;2023-06-22T22:25:09;26.60;53.50
23713;DHT22;12035;49.978;8.298;2023-06-22T22:30:07;26.50;53.60
23713;DHT22;12035;49.978;8.298;2023-06-22T22:35:05;26.40;53.90
23713;DHT22;12035;49.978;8.298;2023-06-22T22:40:05;26.40;54.60
23713;DHT22;12035;49.978;8.298;2023-06-22T22:45:06;26.30;54.60
23713;DHT22;12035;49.978;8.298;2023-06-22T22:50:05;26.10;54.50
23713;DHT22;12035;49.978;8.298;2023-06-22T22:55:06;25.90;54.50
23713;DHT22;12035;49.978;8.298;2023-06-22T23:00:07;25.80;54.60
23713;DHT22;12035;49.978;8.298;2023-06-22T23:05:08;25.60;54.70
23713;DHT22;12035;49.978;8.298;2023-06-22T23:10:08;25.50;54.60
23713;DHT22;12035;49.978;8.298;2023-06-22T23:15:06;25.40;54.80
23713;DHT22;12035;49.978;8.298;2023-06-22T23:20:05;25.30;54.80
23713;DHT22;12035;49.978;8.298;2023-06-22T23:25:07;25.20;54.70
23713;DHT22;12035;49.978;8.298;2023-06-22T23:30:06;25.10;54.80
23713;DHT22;12035;49.978;8.298;2023-06-22T23:35:05;25.00;54.80
23713;DHT22;12035;49.978;8.298;2023-06-22T23:40:08;24.90;54.60
23713;DHT22;12035;49.978;8.298;2023-06-22T23:45:12;24.80;54.40
23713;DHT22;12035;49.978;8.298;2023-06-22T23:50:13;24.70;54.30
23713;DHT22;12035;49.978;8.298;2023-06-22T23:55:11;24.70;54.40
